Current Weather

Lansing Muni

Chicago, Illinois (KIGQ)

Report from: Wednesday, September 28, 2022 4:15 AM CDT
Current time: Wednesday, September 28, 2022 4:27 AM CDT

Nearby weather
Weather history
Weather forecast

Present weatherHeavy rain
Temperature8.6°C (47.5°F)
Wind chill8.0°C (46.4°F)
Dew point8.3°C (46.9°F)
Winds 3 kts (1.5 m/s, 3.5 mph) North-Northwest (330°)
Visibility3 mi. (4.8 km)
Clouds Scattered clouds 1,600 ft. (488 m)
Ceiling: Broken clouds 2,200 ft. (671 m)
Overcast 4,900 ft. (1,494 m)
Altimeter30.33 in.Hg (1027 mB)
Precipitiation0.04 in. (1 mm)
Relative humidity98 %
Density altitude-1,080 ft. (-329 m)
Remarks Fully automated report
Automated weather observing station with precipitation discriminator
Flight conditions Marginal Visual Meteorological Conditions
Raw dataKIGQ 280915Z AUTO 33003KT 3SM +RA SCT016 BKN022 OVC049 09/08 A3033 RMK AO2 P0004 T00860083
An error has occurred. This application may no longer respond until reloaded. Reload 🗙